»·PEaware :: UAL1513 KPHX-KELP

UAL1513 :: KPHX-KELP

FLIGHT INFORMATION

Flight Status: Arrived
Operator:
United Airlines
More flights by this operator :: More flights under this callsign
Pilot: Alex K. (14822)
Aircraft: Unknown
(B727)
More flights by this aircraft type
Origin: KPHX Phoenix Sky Harbor Intl
United States
Destination: KELP El Paso Intl
United States
More flights between these airports :: More routes between these airports
Route: TFD4 TFD J50 ELP
File this flight plan on PilotEdge
Remarks:
Altitude:
(Current/Filed)
33,000ft
Speed:
(Current/Filed)
489kts
Departed: 06-Oct-17 11:26 AM
Arrived: 06-Oct-17 12:24 PM
Distance/Time
Traveled:
300nm/0:57
Distance/Time
To Go:
Arrived

Flight Plot

Page will automatically refresh every two minutes.

Flight plan parsing failed; only flown route is shown


Map Options




Map Legend


Flown Route
Filed Route
Departure Airport
Arrival Airport
Navaid (VOR, NDB)
Fix

Horizontal Profiles

Position Reports

Time Latitude Longitude Heading Altitude Ground
Speed
06-Oct-17 11:00 33.434755 -112.013012 315 1128ft 0kts
06-Oct-17 11:01 33.434755 -112.013012 315 1128ft 0kts
06-Oct-17 11:02 33.434755 -112.013012 315 1128ft 0kts
06-Oct-17 11:03 33.434755 -112.013012 315 1128ft 0kts
06-Oct-17 11:04 33.434755 -112.013012 315 1128ft 0kts
06-Oct-17 11:05 33.434755 -112.013012 315 1128ft 0kts
06-Oct-17 11:06 33.434755 -112.013012 315 1128ft 0kts
06-Oct-17 11:07 33.434755 -112.013012 315 1128ft 0kts
06-Oct-17 11:08 33.434755 -112.013012 315 1128ft 0kts
06-Oct-17 11:09 33.434755 -112.013012 315 1128ft 0kts
06-Oct-17 11:10 33.434755 -112.013012 315 1128ft 0kts
06-Oct-17 11:11 33.434755 -112.013012 315 1128ft 0kts
06-Oct-17 11:12 33.434755 -112.013012 315 1128ft 0kts
06-Oct-17 11:13 33.434755 -112.013012 315 1128ft 0kts
06-Oct-17 11:14 33.434755 -112.013012 315 1128ft 0kts
06-Oct-17 11:15 33.434755 -112.013012 315 1128ft 0kts
06-Oct-17 11:16 33.434755 -112.013012 315 1128ft 0kts
06-Oct-17 11:17 33.434755 -112.013012 315 1128ft 0kts
06-Oct-17 11:18 33.434755 -112.013012 315 1128ft 0kts
06-Oct-17 11:19 33.434755 -112.013012 315 1128ft 0kts
06-Oct-17 11:20 33.434528 -112.012613 270 1129ft 1kts
06-Oct-17 11:21 33.434778 -112.012229 187 1129ft 0kts
06-Oct-17 11:22 33.434778 -112.012229 187 1129ft 0kts
06-Oct-17 11:23 33.434778 -112.012229 187 1129ft 0kts
06-Oct-17 11:24 33.433333 -112.012248 162 1129ft 5kts
06-Oct-17 11:25 33.432881 -112.008033 89 1133ft 20kts
06-Oct-17 11:26 33.432833 -111.999333 89 1129ft 27kts
06-Oct-17 11:27 33.432162 -111.993459 179 1127ft 5kts
06-Oct-17 11:28 33.432126 -111.993460 180 1127ft 0kts
06-Oct-17 11:29 33.431797 -111.993464 181 1127ft 6kts
06-Oct-17 11:30 33.431045 -112.008067 270 1130ft 143kts
06-Oct-17 11:31 33.422612 -112.067535 250 2846ft 229kts
06-Oct-17 11:32 33.397120 -112.148547 250 5879ft 278kts
06-Oct-17 11:33 33.342917 -112.210235 192 9418ft 289kts
06-Oct-17 11:34 33.267966 -112.170449 149 12026ft 334kts
06-Oct-17 11:35 33.184791 -112.110732 152 14699ft 363kts
06-Oct-17 11:36 33.095483 -112.049691 153 17579ft 379kts
06-Oct-17 11:37 33.002434 -111.986823 154 20218ft 393kts
06-Oct-17 11:38 32.903951 -111.920623 154 21063ft 424kts
06-Oct-17 11:39 32.832130 -111.820640 96 23166ft 426kts
06-Oct-17 11:40 32.842667 -111.681678 108 24740ft 435kts
06-Oct-17 11:41 32.799458 -111.546737 109 26061ft 452kts
06-Oct-17 11:42 32.763212 -111.402189 108 27698ft 467kts
06-Oct-17 11:43 32.726806 -111.254232 109 29231ft 479kts
06-Oct-17 11:44 32.689118 -111.101218 109 30647ft 490kts
06-Oct-17 11:45 32.650345 -110.944745 110 31996ft 501kts
06-Oct-17 11:46 32.610531 -110.785057 110 33093ft 515kts
06-Oct-17 11:47 32.568727 -110.618136 110 33122ft 548kts
06-Oct-17 11:48 32.561344 -110.435488 97 33074ft 565kts
06-Oct-17 11:49 32.520969 -110.259844 109 33071ft 554kts
06-Oct-17 11:50 32.478192 -110.087517 109 33054ft 546kts
06-Oct-17 11:51 32.435707 -109.918278 108 33062ft 536kts
06-Oct-17 11:52 32.394005 -109.751747 108 33065ft 528kts
06-Oct-17 11:53 32.352525 -109.587816 108 33068ft 521kts
06-Oct-17 11:54 32.311185 -109.425485 108 33075ft 522kts
06-Oct-17 11:55 32.269788 -109.263689 109 33066ft 524kts
06-Oct-17 11:56 32.227223 -109.098802 109 33067ft 526kts
06-Oct-17 11:57 32.189175 -108.935226 107 33094ft 526kts
06-Oct-17 11:58 32.149471 -108.769185 108 33125ft 527kts
06-Oct-17 11:59 32.108816 -108.603919 108 33127ft 529kts
06-Oct-17 12:00 32.067701 -108.438075 108 33129ft 531kts
06-Oct-17 12:01 32.027178 -108.274786 109 33118ft 533kts
06-Oct-17 12:02 31.985064 -108.107920 109 33122ft 534kts
06-Oct-17 12:03 31.943585 -107.942689 109 33347ft 505kts
06-Oct-17 12:04 31.904090 -107.787154 109 31418ft 498kts
06-Oct-17 12:05 31.866082 -107.634425 97 29779ft 491kts
06-Oct-17 12:06 31.900009 -107.482317 82 28049ft 480kts
06-Oct-17 12:07 31.897614 -107.328479 96 26472ft 465kts
06-Oct-17 12:08 31.886601 -107.180266 97 24927ft 453kts
06-Oct-17 12:09 31.875932 -107.039030 97 21110ft 423kts
06-Oct-17 12:10 31.865552 -106.903578 97 18581ft 412kts
06-Oct-17 12:11 31.855384 -106.772896 97 16821ft 394kts
06-Oct-17 12:12 31.845297 -106.645230 97 15030ft 387kts
06-Oct-17 12:13 31.835419 -106.521010 96 13588ft 379kts
06-Oct-17 12:14 31.825585 -106.399089 96 12525ft 366kts
06-Oct-17 12:15 31.830047 -106.288439 53 12268ft 330kts
06-Oct-17 12:16 31.905542 -106.273265 316 11442ft 290kts
06-Oct-17 12:17 31.967589 -106.316048 358 11249ft 257kts
06-Oct-17 12:18 31.999413 -106.258774 110 10309ft 239kts
06-Oct-17 12:19 31.974287 -106.186635 127 9081ft 238kts
06-Oct-17 12:20 31.926678 -106.133423 157 7932ft 237kts
06-Oct-17 12:21 31.867761 -106.098845 155 6912ft 232kts
06-Oct-17 12:22 31.812242 -106.099914 228 6949ft 211kts
06-Oct-17 12:23 31.809227 -106.166708 274 6648ft 218kts
06-Oct-17 12:24 31.813348 -106.236111 273 5416ft 183kts
06-Oct-17 12:25 31.810581 -106.283043 263 5489ft 137kts
06-Oct-17 12:26 31.801281 -106.326665 253 4571ft 137kts
06-Oct-17 12:27 31.801028 -106.368588 273 3960ft 84kts
06-Oct-17 12:28 31.800709 -106.381260 183 3943ft 11kts
06-Oct-17 12:29 31.799902 -106.384878 269 3939ft 17kts
06-Oct-17 12:30 31.799698 -106.391552 253 3929ft 14kts
06-Oct-17 12:31 31.799924 -106.392491 340 3929ft 2kts
06-Oct-17 12:32 31.800045 -106.392530 346 3929ft 0kts
06-Oct-17 12:33 31.800045 -106.392530 346 3929ft 0kts
06-Oct-17 12:34 31.800045 -106.392530 346 3929ft 0kts
06-Oct-17 12:35 31.800045 -106.392530 346 3929ft 0kts
06-Oct-17 12:36 31.800045 -106.392530 346 3929ft 0kts
06-Oct-17 12:37 31.800045 -106.392530 346 3929ft 0kts
06-Oct-17 12:38 31.800045 -106.392530 346 3929ft 0kts
06-Oct-17 12:39 31.800045 -106.392530 346 3929ft 0kts
06-Oct-17 12:40 31.800045 -106.392530 346 3929ft 0kts
06-Oct-17 12:41 31.800045 -106.392530 346 3929ft 0kts

Navigation Log

Ident Type
Flight plan parsing failed, navigation log unavailable